sensor_id;sensor_type;location;lat;lon;timestamp;pressure;altitude;pressure_sealevel;temperature
7389;BMP180;3735;50.136;11.062;2023-11-19T00:00:33;98036.00;;;5.80
7389;BMP180;3735;50.136;11.062;2023-11-19T00:02:59;98016.00;;;5.80
7389;BMP180;3735;50.136;11.062;2023-11-19T00:05:25;98005.00;;;5.80
7389;BMP180;3735;50.136;11.062;2023-11-19T00:07:52;98000.00;;;5.80
7389;BMP180;3735;50.136;11.062;2023-11-19T00:10:17;97992.00;;;5.80
7389;BMP180;3735;50.136;11.062;2023-11-19T00:12:46;97988.00;;;5.90
7389;BMP180;3735;50.136;11.062;2023-11-19T00:15:13;97985.00;;;5.90
7389;BMP180;3735;50.136;11.062;2023-11-19T00:17:41;97958.00;;;5.90
7389;BMP180;3735;50.136;11.062;2023-11-19T00:20:11;97974.00;;;6.00
7389;BMP180;3735;50.136;11.062;2023-11-19T00:22:37;97978.00;;;6.00
7389;BMP180;3735;50.136;11.062;2023-11-19T00:25:04;98002.00;;;5.90
7389;BMP180;3735;50.136;11.062;2023-11-19T00:27:31;98002.00;;;6.00
7389;BMP180;3735;50.136;11.062;2023-11-19T00:29:56;98001.00;;;6.00
7389;BMP180;3735;50.136;11.062;2023-11-19T00:32:23;97989.00;;;6.00
7389;BMP180;3735;50.136;11.062;2023-11-19T00:34:49;97987.00;;;6.00
7389;BMP180;3735;50.136;11.062;2023-11-19T00:37:15;97988.00;;;6.00
7389;BMP180;3735;50.136;11.062;2023-11-19T00:39:41;97973.00;;;5.90
7389;BMP180;3735;50.136;11.062;2023-11-19T00:42:07;97970.00;;;5.90
7389;BMP180;3735;50.136;11.062;2023-11-19T00:44:33;97966.00;;;6.00
7389;BMP180;3735;50.136;11.062;2023-11-19T00:46:59;97955.00;;;6.00
7389;BMP180;3735;50.136;11.062;2023-11-19T00:49:25;97960.00;;;6.00
7389;BMP180;3735;50.136;11.062;2023-11-19T00:51:51;97972.00;;;6.10
7389;BMP180;3735;50.136;11.062;2023-11-19T00:54:17;97968.00;;;6.10
7389;BMP180;3735;50.136;11.062;2023-11-19T00:56:43;97969.00;;;6.10
7389;BMP180;3735;50.136;11.062;2023-11-19T00:59:10;97954.00;;;6.10
7389;BMP180;3735;50.136;11.062;2023-11-19T01:01:36;97956.00;;;6.10
7389;BMP180;3735;50.136;11.062;2023-11-19T01:04:02;97956.00;;;6.10
7389;BMP180;3735;50.136;11.062;2023-11-19T01:06:29;97968.00;;;6.10
7389;BMP180;3735;50.136;11.062;2023-11-19T01:08:56;97960.00;;;6.10
7389;BMP180;3735;50.136;11.062;2023-11-19T01:11:23;97958.00;;;6.10
7389;BMP180;3735;50.136;11.062;2023-11-19T01:13:49;97965.00;;;6.10
7389;BMP180;3735;50.136;11.062;2023-11-19T01:16:15;97965.00;;;6.00
7389;BMP180;3735;50.136;11.062;2023-11-19T01:18:41;97973.00;;;6.00
7389;BMP180;3735;50.136;11.062;2023-11-19T01:21:07;97980.00;;;6.00
7389;BMP180;3735;50.136;11.062;2023-11-19T01:23:34;97969.00;;;6.00
7389;BMP180;3735;50.136;11.062;2023-11-19T01:26:00;97968.00;;;6.00
7389;BMP180;3735;50.136;11.062;2023-11-19T01:28:26;97970.00;;;6.00
7389;BMP180;3735;50.136;11.062;2023-11-19T01:30:52;97973.00;;;5.90
7389;BMP180;3735;50.136;11.062;2023-11-19T01:33:18;97965.00;;;6.00
7389;BMP180;3735;50.136;11.062;2023-11-19T01:35:44;97954.00;;;6.00
7389;BMP180;3735;50.136;11.062;2023-11-19T01:38:09;97943.00;;;6.00
7389;BMP180;3735;50.136;11.062;2023-11-19T01:40:36;97926.00;;;6.10
7389;BMP180;3735;50.136;11.062;2023-11-19T01:43:03;97928.00;;;6.00
7389;BMP180;3735;50.136;11.062;2023-11-19T01:45:30;97917.00;;;6.00
7389;BMP180;3735;50.136;11.062;2023-11-19T01:47:58;97914.00;;;6.00
7389;BMP180;3735;50.136;11.062;2023-11-19T01:50:25;97912.00;;;6.00
7389;BMP180;3735;50.136;11.062;2023-11-19T01:52:55;97908.00;;;5.90
7389;BMP180;3735;50.136;11.062;2023-11-19T01:55:25;97908.00;;;6.00
7389;BMP180;3735;50.136;11.062;2023-11-19T01:57:58;97896.00;;;6.00
7389;BMP180;3735;50.136;11.062;2023-11-19T02:00:25;97899.00;;;6.00
7389;BMP180;3735;50.136;11.062;2023-11-19T02:02:52;97901.00;;;6.00
7389;BMP180;3735;50.136;11.062;2023-11-19T02:05:18;97898.00;;;6.00
7389;BMP180;3735;50.136;11.062;2023-11-19T02:07:44;97896.00;;;5.90
7389;BMP180;3735;50.136;11.062;2023-11-19T02:10:11;97901.00;;;6.00
7389;BMP180;3735;50.136;11.062;2023-11-19T02:12:40;97891.00;;;5.90
7389;BMP180;3735;50.136;11.062;2023-11-19T02:15:09;97888.00;;;5.90
7389;BMP180;3735;50.136;11.062;2023-11-19T02:17:35;97880.00;;;5.90
7389;BMP180;3735;50.136;11.062;2023-11-19T02:20:04;97871.00;;;6.00
7389;BMP180;3735;50.136;11.062;2023-11-19T02:22:35;97869.00;;;5.90
7389;BMP180;3735;50.136;11.062;2023-11-19T02:25:07;97852.00;;;6.00
7389;BMP180;3735;50.136;11.062;2023-11-19T02:27:54;97849.00;;;6.00
7389;BMP180;3735;50.136;11.062;2023-11-19T02:30:22;97849.00;;;6.00
7389;BMP180;3735;50.136;11.062;2023-11-19T02:32:59;97835.00;;;5.90
7389;BMP180;3735;50.136;11.062;2023-11-19T02:35:27;97841.00;;;5.90
7389;BMP180;3735;50.136;11.062;2023-11-19T02:37:56;97834.00;;;5.90
7389;BMP180;3735;50.136;11.062;2023-11-19T02:40:22;97837.00;;;5.90
7389;BMP180;3735;50.136;11.062;2023-11-19T02:42:50;97834.00;;;5.90
7389;BMP180;3735;50.136;11.062;2023-11-19T02:45:16;97829.00;;;5.90
7389;BMP180;3735;50.136;11.062;2023-11-19T02:47:44;97841.00;;;5.90
7389;BMP180;3735;50.136;11.062;2023-11-19T02:50:11;97837.00;;;6.00
7389;BMP180;3735;50.136;11.062;2023-11-19T02:52:44;97824.00;;;6.00
7389;BMP180;3735;50.136;11.062;2023-11-19T02:55:11;97822.00;;;6.00
7389;BMP180;3735;50.136;11.062;2023-11-19T02:57:41;97807.00;;;6.00
7389;BMP180;3735;50.136;11.062;2023-11-19T03:00:19;97817.00;;;6.00
7389;BMP180;3735;50.136;11.062;2023-11-19T03:02:49;97804.00;;;6.00
7389;BMP180;3735;50.136;11.062;2023-11-19T03:05:25;97806.00;;;5.90
7389;BMP180;3735;50.136;11.062;2023-11-19T03:07:52;97797.00;;;6.00
7389;BMP180;3735;50.136;11.062;2023-11-19T03:10:18;97798.00;;;6.00
7389;BMP180;3735;50.136;11.062;2023-11-19T03:12:45;97776.00;;;6.00
7389;BMP180;3735;50.136;11.062;2023-11-19T03:15:13;97779.00;;;6.10
7389;BMP180;3735;50.136;11.062;2023-11-19T03:17:41;97767.00;;;6.10
7389;BMP180;3735;50.136;11.062;2023-11-19T03:20:10;97757.00;;;6.10
7389;BMP180;3735;50.136;11.062;2023-11-19T03:22:39;97755.00;;;6.10
7389;BMP180;3735;50.136;11.062;2023-11-19T03:25:07;97744.00;;;6.20
7389;BMP180;3735;50.136;11.062;2023-11-19T03:27:35;97725.00;;;6.20
7389;BMP180;3735;50.136;11.062;2023-11-19T03:30:05;97738.00;;;6.10
7389;BMP180;3735;50.136;11.062;2023-11-19T03:32:33;97736.00;;;6.10
7389;BMP180;3735;50.136;11.062;2023-11-19T03:35:00;97726.00;;;6.20
7389;BMP180;3735;50.136;11.062;2023-11-19T03:37:27;97718.00;;;6.20
7389;BMP180;3735;50.136;11.062;2023-11-19T03:39:54;97731.00;;;6.20
7389;BMP180;3735;50.136;11.062;2023-11-19T03:42:20;97730.00;;;6.20
7389;BMP180;3735;50.136;11.062;2023-11-19T03:44:47;97720.00;;;6.20
7389;BMP180;3735;50.136;11.062;2023-11-19T03:47:12;97726.00;;;6.20
7389;BMP180;3735;50.136;11.062;2023-11-19T03:49:38;97734.00;;;6.20
7389;BMP180;3735;50.136;11.062;2023-11-19T03:52:04;97736.00;;;6.20
7389;BMP180;3735;50.136;11.062;2023-11-19T03:54:30;97732.00;;;6.20
7389;BMP180;3735;50.136;11.062;2023-11-19T03:56:56;97731.00;;;6.20
7389;BMP180;3735;50.136;11.062;2023-11-19T03:59:21;97736.00;;;6.10
7389;BMP180;3735;50.136;11.062;2023-11-19T04:01:47;97740.00;;;6.20
7389;BMP180;3735;50.136;11.062;2023-11-19T04:04:13;97731.00;;;6.20
7389;BMP180;3735;50.136;11.062;2023-11-19T04:06:39;97742.00;;;6.20
7389;BMP180;3735;50.136;11.062;2023-11-19T04:09:05;97739.00;;;6.20
7389;BMP180;3735;50.136;11.062;2023-11-19T04:11:31;97741.00;;;6.20
7389;BMP180;3735;50.136;11.062;2023-11-19T04:13:58;97740.00;;;6.30
7389;BMP180;3735;50.136;11.062;2023-11-19T04:16:27;97754.00;;;6.20
7389;BMP180;3735;50.136;11.062;2023-11-19T04:18:54;97747.00;;;6.20
7389;BMP180;3735;50.136;11.062;2023-11-19T04:21:20;97745.00;;;6.20
7389;BMP180;3735;50.136;11.062;2023-11-19T04:23:45;97746.00;;;6.20
7389;BMP180;3735;50.136;11.062;2023-11-19T04:26:11;97744.00;;;6.20
7389;BMP180;3735;50.136;11.062;2023-11-19T04:28:37;97744.00;;;6.20
7389;BMP180;3735;50.136;11.062;2023-11-19T04:31:03;97739.00;;;6.20
7389;BMP180;3735;50.136;11.062;2023-11-19T04:33:29;97723.00;;;6.20
7389;BMP180;3735;50.136;11.062;2023-11-19T04:35:55;97727.00;;;6.20
7389;BMP180;3735;50.136;11.062;2023-11-19T04:38:20;97708.00;;;6.30
7389;BMP180;3735;50.136;11.062;2023-11-19T04:40:46;97706.00;;;6.30
7389;BMP180;3735;50.136;11.062;2023-11-19T04:43:12;97702.00;;;6.40
7389;BMP180;3735;50.136;11.062;2023-11-19T04:45:38;97700.00;;;6.60
7389;BMP180;3735;50.136;11.062;2023-11-19T04:50:37;97667.00;;;6.70
7389;BMP180;3735;50.136;11.062;2023-11-19T04:53:03;97673.00;;;6.80
7389;BMP180;3735;50.136;11.062;2023-11-19T04:55:30;97673.00;;;6.90
7389;BMP180;3735;50.136;11.062;2023-11-19T04:57:55;97676.00;;;7.00
7389;BMP180;3735;50.136;11.062;2023-11-19T05:00:21;97688.00;;;7.10
7389;BMP180;3735;50.136;11.062;2023-11-19T05:02:47;97672.00;;;7.10
7389;BMP180;3735;50.136;11.062;2023-11-19T05:05:12;97674.00;;;7.10
7389;BMP180;3735;50.136;11.062;2023-11-19T05:07:38;97670.00;;;7.20
7389;BMP180;3735;50.136;11.062;2023-11-19T05:10:05;97658.00;;;7.30
7389;BMP180;3735;50.136;11.062;2023-11-19T05:12:31;97644.00;;;7.30
7389;BMP180;3735;50.136;11.062;2023-11-19T05:14:57;97639.00;;;7.40
7389;BMP180;3735;50.136;11.062;2023-11-19T05:17:23;97638.00;;;7.40
7389;BMP180;3735;50.136;11.062;2023-11-19T05:19:49;97640.00;;;7.40
7389;BMP180;3735;50.136;11.062;2023-11-19T05:22:15;97643.00;;;7.40
7389;BMP180;3735;50.136;11.062;2023-11-19T05:24:41;97634.00;;;7.50
7389;BMP180;3735;50.136;11.062;2023-11-19T05:27:07;97649.00;;;7.50
7389;BMP180;3735;50.136;11.062;2023-11-19T05:29:33;97642.00;;;7.60
7389;BMP180;3735;50.136;11.062;2023-11-19T05:31:59;97649.00;;;7.60
7389;BMP180;3735;50.136;11.062;2023-11-19T05:34:25;97647.00;;;7.70
7389;BMP180;3735;50.136;11.062;2023-11-19T05:36:51;97659.00;;;7.70
7389;BMP180;3735;50.136;11.062;2023-11-19T05:39:17;97661.00;;;7.70
7389;BMP180;3735;50.136;11.062;2023-11-19T05:41:44;97651.00;;;7.70
7389;BMP180;3735;50.136;11.062;2023-11-19T05:44:10;97655.00;;;7.70
7389;BMP180;3735;50.136;11.062;2023-11-19T05:46:36;97649.00;;;7.70
7389;BMP180;3735;50.136;11.062;2023-11-19T05:49:06;97648.00;;;7.70
7389;BMP180;3735;50.136;11.062;2023-11-19T05:51:31;97638.00;;;7.70
7389;BMP180;3735;50.136;11.062;2023-11-19T05:53:57;97636.00;;;7.70
7389;BMP180;3735;50.136;11.062;2023-11-19T05:56:23;97628.00;;;7.80
7389;BMP180;3735;50.136;11.062;2023-11-19T05:58:50;97616.00;;;7.80
7389;BMP180;3735;50.136;11.062;2023-11-19T06:01:16;97626.00;;;7.80
7389;BMP180;3735;50.136;11.062;2023-11-19T06:03:42;97633.00;;;7.80
7389;BMP180;3735;50.136;11.062;2023-11-19T06:06:09;97647.00;;;7.80
7389;BMP180;3735;50.136;11.062;2023-11-19T06:08:35;97651.00;;;7.80
7389;BMP180;3735;50.136;11.062;2023-11-19T06:11:01;97668.00;;;7.80
7389;BMP180;3735;50.136;11.062;2023-11-19T06:13:27;97656.00;;;7.80
7389;BMP180;3735;50.136;11.062;2023-11-19T06:15:52;97642.00;;;7.70
7389;BMP180;3735;50.136;11.062;2023-11-19T06:18:18;97636.00;;;7.70
7389;BMP180;3735;50.136;11.062;2023-11-19T06:20:45;97641.00;;;7.70
7389;BMP180;3735;50.136;11.062;2023-11-19T06:23:11;97643.00;;;7.60
7389;BMP180;3735;50.136;11.062;2023-11-19T06:25:37;97647.00;;;7.70
7389;BMP180;3735;50.136;11.062;2023-11-19T06:28:03;97649.00;;;7.70
7389;BMP180;3735;50.136;11.062;2023-11-19T06:30:29;97651.00;;;7.60
7389;BMP180;3735;50.136;11.062;2023-11-19T06:32:58;97645.00;;;7.70
7389;BMP180;3735;50.136;11.062;2023-11-19T06:35:24;97647.00;;;7.70
7389;BMP180;3735;50.136;11.062;2023-11-19T06:37:50;97642.00;;;7.80
7389;BMP180;3735;50.136;11.062;2023-11-19T06:40:15;97644.00;;;7.80
7389;BMP180;3735;50.136;11.062;2023-11-19T06:42:42;97638.00;;;7.90
7389;BMP180;3735;50.136;11.062;2023-11-19T06:45:08;97622.00;;;8.00
7389;BMP180;3735;50.136;11.062;2023-11-19T06:47:34;97587.00;;;8.00
7389;BMP180;3735;50.136;11.062;2023-11-19T06:50:00;97633.00;;;8.10
7389;BMP180;3735;50.136;11.062;2023-11-19T06:52:26;97642.00;;;8.10
7389;BMP180;3735;50.136;11.062;2023-11-19T06:54:52;97644.00;;;8.00
7389;BMP180;3735;50.136;11.062;2023-11-19T06:57:17;97640.00;;;8.00
7389;BMP180;3735;50.136;11.062;2023-11-19T06:59:43;97648.00;;;8.00
7389;BMP180;3735;50.136;11.062;2023-11-19T07:02:09;97651.00;;;8.10
7389;BMP180;3735;50.136;11.062;2023-11-19T07:04:35;97647.00;;;7.90
7389;BMP180;3735;50.136;11.062;2023-11-19T07:07:00;97635.00;;;8.00
7389;BMP180;3735;50.136;11.062;2023-11-19T07:09:26;97632.00;;;8.00
7389;BMP180;3735;50.136;11.062;2023-11-19T07:11:52;97635.00;;;8.00
7389;BMP180;3735;50.136;11.062;2023-11-19T07:14:19;97635.00;;;8.00
7389;BMP180;3735;50.136;11.062;2023-11-19T07:16:45;97652.00;;;8.00
7389;BMP180;3735;50.136;11.062;2023-11-19T07:19:16;97632.00;;;8.00
7389;BMP180;3735;50.136;11.062;2023-11-19T07:21:42;97646.00;;;8.00
7389;BMP180;3735;50.136;11.062;2023-11-19T07:24:12;97649.00;;;8.00
7389;BMP180;3735;50.136;11.062;2023-11-19T07:26:46;97654.00;;;8.00
7389;BMP180;3735;50.136;11.062;2023-11-19T07:29:13;97663.00;;;8.00
7389;BMP180;3735;50.136;11.062;2023-11-19T07:31:39;97655.00;;;8.00
7389;BMP180;3735;50.136;11.062;2023-11-19T07:34:05;97666.00;;;8.10
7389;BMP180;3735;50.136;11.062;2023-11-19T07:36:32;97657.00;;;8.30
7389;BMP180;3735;50.136;11.062;2023-11-19T07:38:58;97666.00;;;8.30
7389;BMP180;3735;50.136;11.062;2023-11-19T07:41:24;97661.00;;;8.40
7389;BMP180;3735;50.136;11.062;2023-11-19T07:43:51;97657.00;;;8.50
7389;BMP180;3735;50.136;11.062;2023-11-19T07:46:18;97646.00;;;8.60
7389;BMP180;3735;50.136;11.062;2023-11-19T07:48:47;97667.00;;;8.90
7389;BMP180;3735;50.136;11.062;2023-11-19T07:51:13;97667.00;;;9.10
7389;BMP180;3735;50.136;11.062;2023-11-19T07:53:41;97670.00;;;9.20
7389;BMP180;3735;50.136;11.062;2023-11-19T07:56:08;97660.00;;;9.20
7389;BMP180;3735;50.136;11.062;2023-11-19T07:58:34;97654.00;;;9.40
7389;BMP180;3735;50.136;11.062;2023-11-19T08:01:01;97660.00;;;9.50
7389;BMP180;3735;50.136;11.062;2023-11-19T08:03:29;97648.00;;;9.60
7389;BMP180;3735;50.136;11.062;2023-11-19T08:05:58;97642.00;;;9.70
7389;BMP180;3735;50.136;11.062;2023-11-19T08:08:24;97642.00;;;9.80
7389;BMP180;3735;50.136;11.062;2023-11-19T08:10:49;97639.00;;;9.90
7389;BMP180;3735;50.136;11.062;2023-11-19T08:13:20;97652.00;;;9.90
7389;BMP180;3735;50.136;11.062;2023-11-19T08:15:46;97645.00;;;9.90
7389;BMP180;3735;50.136;11.062;2023-11-19T08:18:12;97643.00;;;9.90
7389;BMP180;3735;50.136;11.062;2023-11-19T08:20:39;97643.00;;;9.90
7389;BMP180;3735;50.136;11.062;2023-11-19T08:23:05;97638.00;;;10.00
7389;BMP180;3735;50.136;11.062;2023-11-19T08:25:31;97646.00;;;10.10
7389;BMP180;3735;50.136;11.062;2023-11-19T08:27:59;97641.00;;;10.20
7389;BMP180;3735;50.136;11.062;2023-11-19T08:30:25;97643.00;;;10.20
7389;BMP180;3735;50.136;11.062;2023-11-19T08:32:51;97648.00;;;10.30
7389;BMP180;3735;50.136;11.062;2023-11-19T08:35:17;97659.00;;;10.20
7389;BMP180;3735;50.136;11.062;2023-11-19T08:37:43;97653.00;;;10.40
7389;BMP180;3735;50.136;11.062;2023-11-19T08:40:09;97663.00;;;10.30
7389;BMP180;3735;50.136;11.062;2023-11-19T08:42:35;97657.00;;;10.30
7389;BMP180;3735;50.136;11.062;2023-11-19T08:45:01;97663.00;;;10.30
7389;BMP180;3735;50.136;11.062;2023-11-19T08:47:26;97664.00;;;10.40
7389;BMP180;3735;50.136;11.062;2023-11-19T08:49:52;97668.00;;;10.50
7389;BMP180;3735;50.136;11.062;2023-11-19T08:52:19;97672.00;;;10.40
7389;BMP180;3735;50.136;11.062;2023-11-19T08:54:44;97682.00;;;10.40
7389;BMP180;3735;50.136;11.062;2023-11-19T08:57:10;97682.00;;;10.40
7389;BMP180;3735;50.136;11.062;2023-11-19T08:59:36;97674.00;;;10.40
7389;BMP180;3735;50.136;11.062;2023-11-19T09:02:05;97680.00;;;10.50
7389;BMP180;3735;50.136;11.062;2023-11-19T09:04:32;97640.00;;;10.50
7389;BMP180;3735;50.136;11.062;2023-11-19T09:06:58;97668.00;;;10.50
7389;BMP180;3735;50.136;11.062;2023-11-19T09:09:24;97663.00;;;10.50
7389;BMP180;3735;50.136;11.062;2023-11-19T09:11:50;97666.00;;;10.50
7389;BMP180;3735;50.136;11.062;2023-11-19T09:14:16;97661.00;;;10.60
7389;BMP180;3735;50.136;11.062;2023-11-19T09:16:43;97665.00;;;10.60
7389;BMP180;3735;50.136;11.062;2023-11-19T09:19:09;97657.00;;;10.60
7389;BMP180;3735;50.136;11.062;2023-11-19T09:21:35;97673.00;;;10.70
7389;BMP180;3735;50.136;11.062;2023-11-19T09:24:04;97668.00;;;10.90
7389;BMP180;3735;50.136;11.062;2023-11-19T09:26:30;97666.00;;;11.00
7389;BMP180;3735;50.136;11.062;2023-11-19T09:28:56;97669.00;;;11.00
7389;BMP180;3735;50.136;11.062;2023-11-19T09:31:22;97670.00;;;11.20
7389;BMP180;3735;50.136;11.062;2023-11-19T09:33:48;97657.00;;;11.50
7389;BMP180;3735;50.136;11.062;2023-11-19T09:36:14;97673.00;;;12.10
7389;BMP180;3735;50.136;11.062;2023-11-19T09:38:43;97678.00;;;11.80
7389;BMP180;3735;50.136;11.062;2023-11-19T09:41:11;97674.00;;;11.50
7389;BMP180;3735;50.136;11.062;2023-11-19T09:43:42;97679.00;;;11.40
7389;BMP180;3735;50.136;11.062;2023-11-19T09:46:14;97668.00;;;11.50
7389;BMP180;3735;50.136;11.062;2023-11-19T09:48:42;97643.00;;;11.50
7389;BMP180;3735;50.136;11.062;2023-11-19T09:51:09;97622.00;;;11.60
7389;BMP180;3735;50.136;11.062;2023-11-19T09:53:41;97666.00;;;11.50
7389;BMP180;3735;50.136;11.062;2023-11-19T09:56:07;97669.00;;;11.50
7389;BMP180;3735;50.136;11.062;2023-11-19T09:58:34;97669.00;;;11.50
7389;BMP180;3735;50.136;11.062;2023-11-19T10:01:00;97667.00;;;11.40
7389;BMP180;3735;50.136;11.062;2023-11-19T10:03:35;97650.00;;;11.50
7389;BMP180;3735;50.136;11.062;2023-11-19T10:06:04;97660.00;;;11.50
7389;BMP180;3735;50.136;11.062;2023-11-19T10:08:32;97654.00;;;11.50
7389;BMP180;3735;50.136;11.062;2023-11-19T10:10:58;97653.00;;;11.60
7389;BMP180;3735;50.136;11.062;2023-11-19T10:13:29;97650.00;;;11.60
7389;BMP180;3735;50.136;11.062;2023-11-19T10:15:56;97662.00;;;11.60
7389;BMP180;3735;50.136;11.062;2023-11-19T10:18:26;97661.00;;;11.70
7389;BMP180;3735;50.136;11.062;2023-11-19T10:20:53;97629.00;;;11.80
7389;BMP180;3735;50.136;11.062;2023-11-19T10:23:21;97650.00;;;11.80
7389;BMP180;3735;50.136;11.062;2023-11-19T10:25:46;97640.00;;;11.90
7389;BMP180;3735;50.136;11.062;2023-11-19T10:28:15;97627.00;;;12.00
7389;BMP180;3735;50.136;11.062;2023-11-19T10:30:42;97635.00;;;12.10
7389;BMP180;3735;50.136;11.062;2023-11-19T10:33:15;97630.00;;;12.00
7389;BMP180;3735;50.136;11.062;2023-11-19T10:35:56;97636.00;;;12.00
7389;BMP180;3735;50.136;11.062;2023-11-19T10:38:24;97633.00;;;11.90
7389;BMP180;3735;50.136;11.062;2023-11-19T10:40:54;97633.00;;;12.00
7389;BMP180;3735;50.136;11.062;2023-11-19T10:43:23;97639.00;;;11.90
7389;BMP180;3735;50.136;11.062;2023-11-19T10:45:50;97640.00;;;11.90
7389;BMP180;3735;50.136;11.062;2023-11-19T10:48:16;97641.00;;;11.60
7389;BMP180;3735;50.136;11.062;2023-11-19T10:50:44;97655.00;;;11.60
7389;BMP180;3735;50.136;11.062;2023-11-19T10:53:12;97653.00;;;11.60
7389;BMP180;3735;50.136;11.062;2023-11-19T10:55:46;97660.00;;;11.50
7389;BMP180;3735;50.136;11.062;2023-11-19T10:58:16;97641.00;;;11.70
7389;BMP180;3735;50.136;11.062;2023-11-19T11:01:01;97640.00;;;11.80
7389;BMP180;3735;50.136;11.062;2023-11-19T11:03:39;97630.00;;;11.70
7389;BMP180;3735;50.136;11.062;2023-11-19T11:06:06;97636.00;;;11.70
7389;BMP180;3735;50.136;11.062;2023-11-19T11:08:36;97625.00;;;11.60
7389;BMP180;3735;50.136;11.062;2023-11-19T11:11:05;97642.00;;;11.60
7389;BMP180;3735;50.136;11.062;2023-11-19T11:13:31;97627.00;;;11.60
7389;BMP180;3735;50.136;11.062;2023-11-19T11:15:59;97631.00;;;12.00
7389;BMP180;3735;50.136;11.062;2023-11-19T11:18:26;97624.00;;;11.70
7389;BMP180;3735;50.136;11.062;2023-11-19T11:21:08;97622.00;;;12.00
7389;BMP180;3735;50.136;11.062;2023-11-19T11:27:07;97615.00;;;11.70
7389;BMP180;3735;50.136;11.062;2023-11-19T11:30:20;97604.00;;;12.80
7389;BMP180;3735;50.136;11.062;2023-11-19T11:36:13;97604.00;;;14.50
7389;BMP180;3735;50.136;11.062;2023-11-19T11:38:47;97594.00;;;15.00
7389;BMP180;3735;50.136;11.062;2023-11-19T11:41:21;97577.00;;;15.30
7389;BMP180;3735;50.136;11.062;2023-11-19T11:43:52;97589.00;;;15.40
7389;BMP180;3735;50.136;11.062;2023-11-19T11:49:03;97589.00;;;15.50
7389;BMP180;3735;50.136;11.062;2023-11-19T11:54:26;97596.00;;;15.60
7389;BMP180;3735;50.136;11.062;2023-11-19T11:57:10;97587.00;;;15.50
7389;BMP180;3735;50.136;11.062;2023-11-19T12:02:16;97593.00;;;16.00
7389;BMP180;3735;50.136;11.062;2023-11-19T12:04:46;97561.00;;;15.50
7389;BMP180;3735;50.136;11.062;2023-11-19T12:07:33;97592.00;;;14.70
7389;BMP180;3735;50.136;11.062;2023-11-19T12:10:09;97587.00;;;15.30
7389;BMP180;3735;50.136;11.062;2023-11-19T12:12:38;97593.00;;;15.20
7389;BMP180;3735;50.136;11.062;2023-11-19T12:15:10;97593.00;;;15.50
7389;BMP180;3735;50.136;11.062;2023-11-19T12:17:46;97584.00;;;15.20
7389;BMP180;3735;50.136;11.062;2023-11-19T12:20:16;97595.00;;;15.30
7389;BMP180;3735;50.136;11.062;2023-11-19T12:22:44;97599.00;;;16.00
7389;BMP180;3735;50.136;11.062;2023-11-19T12:25:11;97593.00;;;16.00
7389;BMP180;3735;50.136;11.062;2023-11-19T12:27:41;97590.00;;;15.10
7389;BMP180;3735;50.136;11.062;2023-11-19T12:30:08;97590.00;;;14.60
7389;BMP180;3735;50.136;11.062;2023-11-19T12:32:45;97588.00;;;14.10
7389;BMP180;3735;50.136;11.062;2023-11-19T12:35:12;97574.00;;;14.10
7389;BMP180;3735;50.136;11.062;2023-11-19T12:37:49;97574.00;;;14.20
7389;BMP180;3735;50.136;11.062;2023-11-19T12:40:22;97575.00;;;14.60
7389;BMP180;3735;50.136;11.062;2023-11-19T12:42:50;97561.00;;;14.70
7389;BMP180;3735;50.136;11.062;2023-11-19T12:45:17;97563.00;;;14.60
7389;BMP180;3735;50.136;11.062;2023-11-19T12:47:45;97555.00;;;14.80
7389;BMP180;3735;50.136;11.062;2023-11-19T12:50:16;97565.00;;;14.30
7389;BMP180;3735;50.136;11.062;2023-11-19T12:52:55;97572.00;;;13.80
7389;BMP180;3735;50.136;11.062;2023-11-19T12:55:26;97559.00;;;13.20
7389;BMP180;3735;50.136;11.062;2023-11-19T12:57:53;97580.00;;;13.00
7389;BMP180;3735;50.136;11.062;2023-11-19T13:00:23;97581.00;;;12.90
7389;BMP180;3735;50.136;11.062;2023-11-19T13:02:59;97573.00;;;12.90
7389;BMP180;3735;50.136;11.062;2023-11-19T13:08:06;97559.00;;;14.20
7389;BMP180;3735;50.136;11.062;2023-11-19T13:13:14;97567.00;;;14.90
7389;BMP180;3735;50.136;11.062;2023-11-19T13:15:39;97557.00;;;14.90
7389;BMP180;3735;50.136;11.062;2023-11-19T13:18:05;97565.00;;;14.80
7389;BMP180;3735;50.136;11.062;2023-11-19T13:20:32;97568.00;;;13.90
7389;BMP180;3735;50.136;11.062;2023-11-19T13:23:01;97558.00;;;13.30
7389;BMP180;3735;50.136;11.062;2023-11-19T13:25:28;97568.00;;;12.80
7389;BMP180;3735;50.136;11.062;2023-11-19T13:27:55;97564.00;;;12.60
7389;BMP180;3735;50.136;11.062;2023-11-19T13:30:22;97561.00;;;12.50
7389;BMP180;3735;50.136;11.062;2023-11-19T13:32:50;97545.00;;;12.60
7389;BMP180;3735;50.136;11.062;2023-11-19T13:35:17;97536.00;;;13.20
7389;BMP180;3735;50.136;11.062;2023-11-19T13:37:43;97560.00;;;13.60
7389;BMP180;3735;50.136;11.062;2023-11-19T13:40:11;97558.00;;;13.90
7389;BMP180;3735;50.136;11.062;2023-11-19T13:42:41;97547.00;;;13.30
7389;BMP180;3735;50.136;11.062;2023-11-19T13:45:12;97563.00;;;12.90
7389;BMP180;3735;50.136;11.062;2023-11-19T13:47:44;97561.00;;;12.60
7389;BMP180;3735;50.136;11.062;2023-11-19T13:50:15;97562.00;;;12.40
7389;BMP180;3735;50.136;11.062;2023-11-19T13:52:43;97566.00;;;12.20
7389;BMP180;3735;50.136;11.062;2023-11-19T13:55:11;97561.00;;;12.20
7389;BMP180;3735;50.136;11.062;2023-11-19T13:57:39;97568.00;;;12.10
7389;BMP180;3735;50.136;11.062;2023-11-19T14:00:09;97569.00;;;12.10
7389;BMP180;3735;50.136;11.062;2023-11-19T14:02:42;97555.00;;;12.60
7389;BMP180;3735;50.136;11.062;2023-11-19T14:05:09;97560.00;;;12.70
7389;BMP180;3735;50.136;11.062;2023-11-19T14:07:36;97566.00;;;12.60
7389;BMP180;3735;50.136;11.062;2023-11-19T14:10:03;97575.00;;;12.60
7389;BMP180;3735;50.136;11.062;2023-11-19T14:12:30;97570.00;;;12.60
7389;BMP180;3735;50.136;11.062;2023-11-19T14:14:57;97580.00;;;12.80
7389;BMP180;3735;50.136;11.062;2023-11-19T14:17:23;97580.00;;;12.70
7389;BMP180;3735;50.136;11.062;2023-11-19T14:19:50;97583.00;;;12.50
7389;BMP180;3735;50.136;11.062;2023-11-19T14:22:16;97574.00;;;12.30
7389;BMP180;3735;50.136;11.062;2023-11-19T14:24:42;97579.00;;;12.10
7389;BMP180;3735;50.136;11.062;2023-11-19T14:27:09;97581.00;;;12.10
7389;BMP180;3735;50.136;11.062;2023-11-19T14:29:36;97585.00;;;12.20
7389;BMP180;3735;50.136;11.062;2023-11-19T14:32:06;97583.00;;;12.30
7389;BMP180;3735;50.136;11.062;2023-11-19T14:34:32;97580.00;;;12.30
7389;BMP180;3735;50.136;11.062;2023-11-19T14:36:58;97586.00;;;12.20
7389;BMP180;3735;50.136;11.062;2023-11-19T14:39:26;97580.00;;;12.30
7389;BMP180;3735;50.136;11.062;2023-11-19T14:41:52;97577.00;;;12.10
7389;BMP180;3735;50.136;11.062;2023-11-19T14:44:19;97587.00;;;12.10
7389;BMP180;3735;50.136;11.062;2023-11-19T14:46:46;97578.00;;;12.10
7389;BMP180;3735;50.136;11.062;2023-11-19T14:49:12;97581.00;;;12.10
7389;BMP180;3735;50.136;11.062;2023-11-19T14:51:39;97581.00;;;12.10
7389;BMP180;3735;50.136;11.062;2023-11-19T14:54:06;97584.00;;;12.10